Aviation Digital Data Service (ADDS)

Output produced by METARs form (0623 UTC 24 July 2014)
found at http://aviationweather.gov/adds/metars/
 
KPOU 240520Z 2406/2506 31004KT P6SM VCSH FEW008 SCT016 SCT035 
     FM240800 33003KT P6SM BKN025 
     FM241200 33008KT P6SM SCT050 BKN250 
     FM241500 35007KT P6SM SCT050 
     FM250200 VRB03KT P6SM SKC